Terminal Aerodrome Forecast
Issued by NWS Tampa Bay Area, FL

Home | Current Version | Previous Version | Text Only | Print | Product List | Glossary On
Versions: 1 2 3 4 5 6 7 8 9 10 11 12
420
FTUS42 KTBW 200523
TAFSRQ
TAF
KSRQ 200523Z 2006/2106 09004KT P6SM FEW020 SCT200
     FM201800 10007KT P6SM VCTS SCT025CB BKN200
     FM202100 13009KT P6SM VCTS BKN025CB BKN150
     FM210200 12006KT P6SM BKN250=

USA.gov is the U.S. government's official web portal to all federal, state and local government web resources and services.